Chester, MD

5:19 PM EDT on August 29, 2016 (GMT -0400)
Stevensville

Weather History for KW29 - July, 2013

Change the Weather History Date:

Wednesday, July 24, 2013

  Actual Average (KESN) Record (KESN)
Temperature  
Mean Temperature 78 °F -  
Max Temperature 82 °F 88 °F 100 °F (1952)
Min Temperature 73 °F 67 °F 39 °F (2006)
Cooling Degree Days 12    
Growing Degree Days 28 (Base 50)    
Moisture  
Dew Point 65 °F    
Average Humidity 63    
Maximum Humidity 78    
Minimum Humidity 53    
Precipitation  
Precipitation 0.00 in - - ()
Sea Level Pressure  
Sea Level Pressure 29.78 in    
Wind  
Wind Speed 5 mph (NNW)    
Max Wind Speed 10 mph    
Max Gust Speed 17 mph    
Visibility 10 miles    
Events      
Averages and records for this station are not official NWS values.
T = Trace of Precipitation, MM = Missing Value Source: NWS Daily Summary

Daily Weather History Graph

Daily Weather History Graph

Search for Another Location

Airport or City:

Trip Planner

Search our weather history database for the weather conditions in past years. The results will help you decide how hot, cold, wet, or windy it might be!

Date:

Astronomy

Jul. 24, 2013 Rise Set
Actual Time 5:59 AM EDT 8:23 PM EDT
Civil Twilight 5:28 AM EDT 8:54 PM EDT
Nautical Twilight 4:51 AM EDT 9:31 PM EDT
Astronomical Twilight 4:09 AM EDT 10:13 PM EDT
Moon 9:30 PM EDT (7/24) 8:15 AM EDT (7/24)
Length of Visible Light 15h 25m
Length of Day
14h 24m
Waning Gibbous, 95% of the Moon is Illuminated
Jul 24
Waning Gibbous
Jul 29
Last Quarter
Aug 6
New
Aug 14
First Quarter
Aug 20
Full

Hourly Weather History & Observations

Time (EDT) Temp. Heat Index Dew Point Humidity Pressure Visibility Wind Dir Wind Speed Gust Speed Precip Events Conditions
12:08 AM 78.8 °F - 68.0 °F 69% 29.71 in 10.0 mi SW 3.5 mph - N/A   Clear
12:28 AM 78.8 °F - 68.0 °F 69% 29.71 in 10.0 mi Calm Calm - N/A   Clear
12:48 AM 78.8 °F - 68.0 °F 69% 29.71 in 10.0 mi Calm Calm - N/A   Clear
1:08 AM 78.8 °F - 68.0 °F 69% 29.71 in 10.0 mi Calm Calm - N/A   Clear
1:28 AM 78.8 °F - 69.8 °F 74% 29.70 in 10.0 mi Calm Calm - N/A   Clear
1:48 AM 77.0 °F - 69.8 °F 78% 29.70 in 10.0 mi SW 4.6 mph - N/A   Clear
2:08 AM 78.8 °F - 69.8 °F 74% 29.68 in 10.0 mi SSW 3.5 mph - N/A   Clear
2:28 AM 77.0 °F - 69.8 °F 78% 29.68 in 10.0 mi Calm Calm - N/A   Clear
2:49 AM 77.0 °F - 69.8 °F 78% 29.68 in 10.0 mi West 4.6 mph - N/A   Clear
3:09 AM 78.8 °F - 69.8 °F 74% 29.68 in 10.0 mi West 6.9 mph - N/A   Clear
3:29 AM 78.8 °F - 68.0 °F 69% 29.68 in 10.0 mi West 5.8 mph - N/A   Clear
3:49 AM 78.8 °F - 68.0 °F 69% 29.68 in 10.0 mi West 9.2 mph - N/A   Clear
4:09 AM 78.8 °F - 68.0 °F 69% 29.68 in 10.0 mi West 8.1 mph - N/A   Clear
4:29 AM 77.0 °F - 68.0 °F 74% 29.68 in 10.0 mi West 4.6 mph - N/A   Clear
4:49 AM 77.0 °F - 64.4 °F 65% 29.68 in 10.0 mi West 6.9 mph - N/A   Clear
5:09 AM 77.0 °F - 64.4 °F 65% 29.68 in 10.0 mi WNW 6.9 mph - N/A   Clear
5:29 AM 77.0 °F - 64.4 °F 65% 29.69 in 10.0 mi WNW 5.8 mph - N/A   Clear
5:49 AM 77.0 °F - 64.4 °F 65% 29.69 in 10.0 mi West 5.8 mph - N/A   Clear
6:09 AM 77.0 °F - 64.4 °F 65% 29.70 in 10.0 mi West 3.5 mph - N/A   Clear
6:29 AM 73.4 °F - 64.4 °F 73% 29.71 in 10.0 mi Calm Calm - N/A   Clear
6:49 AM 75.2 °F - 64.4 °F 69% 29.72 in 10.0 mi Calm Calm - N/A   Clear
7:09 AM 77.0 °F - 64.4 °F 65% 29.73 in 10.0 mi WNW 3.5 mph - N/A   Clear
7:29 AM 77.0 °F - 66.2 °F 69% 29.73 in 10.0 mi NW 3.5 mph - N/A   Clear
7:49 AM 77.0 °F - 64.4 °F 65% 29.74 in 10.0 mi NW 3.5 mph - N/A   Clear
8:09 AM 77.0 °F - 64.4 °F 65% 29.74 in 10.0 mi NW 8.1 mph - N/A   Clear
8:29 AM 77.0 °F - 64.4 °F 65% 29.75 in 10.0 mi NW 8.1 mph - N/A   Clear
9:09 AM 77.0 °F - 64.4 °F 65% 29.75 in 10.0 mi NW 10.4 mph - N/A   Clear
9:29 AM 77.0 °F - 64.4 °F 65% 29.76 in 10.0 mi NW 10.4 mph - N/A   Clear
9:49 AM 78.8 °F - 64.4 °F 61% 29.76 in 10.0 mi NW 8.1 mph - N/A   Clear
10:09 AM 78.8 °F - 64.4 °F 61% 29.77 in 10.0 mi NNW 4.6 mph - N/A   Clear
10:29 AM 80.6 °F 82.3 °F 64.4 °F 58% 29.78 in 10.0 mi NW 5.8 mph - N/A   Clear
11:30 AM 78.8 °F - 64.4 °F 61% 29.81 in 10.0 mi WNW 9.2 mph - N/A   Clear
11:50 AM 80.6 °F 82.3 °F 64.4 °F 58% 29.80 in 10.0 mi NW 10.4 mph - N/A   Clear
12:10 PM 78.8 °F - 64.4 °F 61% 29.80 in 10.0 mi NNW 6.9 mph - N/A   Clear
12:30 PM 78.8 °F - 64.4 °F 61% 29.81 in 10.0 mi NNW 5.8 mph - N/A   Clear
12:50 PM 78.8 °F - 64.4 °F 61% 29.81 in 10.0 mi NNW 6.9 mph - N/A   Clear
1:10 PM 78.8 °F - 62.6 °F 57% 29.80 in 10.0 mi North 6.9 mph - N/A   Clear
1:30 PM 80.6 °F 82.3 °F 64.4 °F 58% 29.81 in 10.0 mi North 6.9 mph - N/A   Clear
1:50 PM 78.8 °F - 64.4 °F 61% 29.80 in 10.0 mi North 8.1 mph - N/A   Clear
2:10 PM 78.8 °F - 64.4 °F 61% 29.80 in 10.0 mi North 6.9 mph - N/A   Clear
2:30 PM 80.6 °F 82.3 °F 64.4 °F 58% 29.79 in 10.0 mi North 9.2 mph - N/A   Clear
2:50 PM 80.6 °F 82.3 °F 64.4 °F 58% 29.80 in 10.0 mi North 9.2 mph - N/A   Clear
3:10 PM 80.6 °F 82.3 °F 64.4 °F 58% 29.80 in 10.0 mi NNW 8.1 mph - N/A   Clear
3:30 PM 80.6 °F 82.3 °F 64.4 °F 58% 29.80 in 10.0 mi North 6.9 mph - N/A   Clear
3:50 PM 80.6 °F 82.3 °F 64.4 °F 58% 29.80 in 10.0 mi North 6.9 mph - N/A   Clear
4:10 PM 82.4 °F 83.9 °F 64.4 °F 54% 29.79 in 10.0 mi North 5.8 mph - N/A   Clear
4:30 PM 80.6 °F 82.3 °F 64.4 °F 58% 29.80 in 10.0 mi NNW 4.6 mph - N/A   Clear
4:50 PM 80.6 °F 82.3 °F 64.4 °F 58% 29.79 in 10.0 mi North 6.9 mph - N/A   Clear
5:10 PM 80.6 °F 82.7 °F 66.2 °F 61% 29.80 in 10.0 mi North 6.9 mph - N/A   Clear
5:30 PM 80.6 °F 82.7 °F 66.2 °F 61% 29.80 in 10.0 mi North 3.5 mph - N/A   Clear
5:50 PM 80.6 °F 82.3 °F 64.4 °F 58% 29.80 in 10.0 mi North 3.5 mph - N/A   Clear
6:10 PM 80.6 °F 83.2 °F 68.0 °F 65% 29.80 in 10.0 mi NNE 8.1 mph - N/A   Scattered Clouds
6:30 PM 80.6 °F 82.7 °F 66.2 °F 61% 29.81 in 10.0 mi NNE 6.9 mph - N/A   Clear
6:50 PM 78.8 °F - 64.4 °F 61% 29.81 in 10.0 mi NNE 6.9 mph - N/A   Clear
7:10 PM 78.8 °F - 64.4 °F 61% 29.82 in 10.0 mi NNE 6.9 mph - N/A   Clear
7:30 PM 77.0 °F - 64.4 °F 65% 29.82 in 10.0 mi NE 5.8 mph - N/A   Clear
7:51 PM 77.0 °F - 62.6 °F 61% 29.83 in 10.0 mi NNE 5.8 mph - N/A   Clear
8:11 PM 77.0 °F - 62.6 °F 61% 29.84 in 10.0 mi NNE 3.5 mph - N/A   Clear
8:31 PM 77.0 °F - 62.6 °F 61% 29.85 in 10.0 mi NE 4.6 mph - N/A   Scattered Clouds
8:51 PM 77.0 °F - 60.8 °F 57% 29.86 in 10.0 mi NE 5.8 mph - N/A   Scattered Clouds
9:11 PM 77.0 °F - 60.8 °F 57% 29.87 in 10.0 mi NE 3.5 mph - N/A   Clear
9:31 PM 77.0 °F - 60.8 °F 57% 29.89 in 10.0 mi NNE 5.8 mph - N/A   Scattered Clouds
9:51 PM 77.0 °F - 60.8 °F 57% 29.89 in 10.0 mi NNE 5.8 mph - N/A   Scattered Clouds
10:11 PM 75.2 °F - 60.8 °F 61% 29.89 in 10.0 mi NNE 8.1 mph - N/A   Clear
10:31 PM 75.2 °F - 59.0 °F 57% 29.90 in 10.0 mi NNE 6.9 mph - N/A   Clear
10:51 PM 75.2 °F - 59.0 °F 57% 29.90 in 10.0 mi NNE 6.9 mph - N/A   Clear
11:11 PM 73.4 °F - 55.4 °F 53% 29.90 in 10.0 mi NNE 9.2 mph - N/A   Clear
11:31 PM 73.4 °F - 57.2 °F 57% 29.90 in 10.0 mi NNE 9.2 mph - N/A   Clear
11:51 PM 73.4 °F - 55.4 °F 53% 29.90 in 10.0 mi North 9.2 mph 17.3 mph N/A   Clear